Aérodrome :
LOGIN :

S'inscrire | Disclaimer

   EN    FR    IT 

 










Légende :    VFR   VFR Marginal   IFR   IFR Intensif   IFR Très Intensif
Visi : 
Plafond : 
>= 8 km
>= 3000ft
5 à 8 km
1000 à 3000 ft
1500m à 5 km
500 à 1000 ft
800 à 1500m
200 à 500 ft
< 800m
< 200 ft
Symboles :   Orages  Brouillard  Fortes neiges  Fortes précipitations  Vent > 20 kt
SIGMETs :   Divers  Orages  Givrage  Turbulence  Onde Orograph.  Cendres Volcan.






- Altitude de l'aérodrome : 170 ft
- Code IATA : BGO


ENBR - Bergen , Flesland

DERNIER METAR :
  • 310720Z 12007KT 9999 FEW006 06/05 Q1014 NOSIG RMK WIND 1200FT 13013KT

METARs EXPIRÉS :
  • 310650Z 13005KT 9999 FEW006 06/05 Q1015 NOSIG RMK WIND 1200FT 14012KT
  • 310620Z 13007KT 9999 FEW025 06/05 Q1014 NOSIG RMK WIND 1200FT 15012KT
  • 310550Z 12005KT 9999 FEW025 05/04 Q1014 NOSIG RMK WIND 1200FT 13012KT
  • 310520Z VRB02KT 9999 FEW027 06/05 Q1014 RMK WIND 1200FT 13009KT
  • 310450Z VRB01KT 9999 FEW025 06/05 Q1014 RMK WIND 1200FT 13009KT

TAF TAF ENBR
Valide du 31 à 06h jusqu'au 01 à 06h UTC


3106/0106 13005KT 9999 -SHRA FEW012 SCT030
BECMG 3109/3112 16015KT
BECMG 3116/3118 14025G38KT
TEMPO 3119/0106 4000 RA BKN011
BECMG 0103/0105 18015G25KT



MET'MAP, la Météo Aéronautique d'un coup d'oeil ! - Copyright ORBIFLY Décembre 2007 - Disclaimer

ORBIFLY MET'MAP TEAM :

Programmation & Développement : Alexandra Zaïnal
Sur une idée originale de : Baudouin d'Aumeries
Assistance à la programmation : Marc-Olivier Méhu
Soutien technique & logistique : Manuel Goepfert

Contact : metmap@orbifly.com




SOURCES & CREDITS :

   NOAA